sensor_id;sensor_type;location;lat;lon;timestamp;P1;P2;P0
57884;PMS5003;43703;51.060;-0.086;2023-04-01T00:01:10;4;4;
57884;PMS5003;43703;51.060;-0.086;2023-04-01T00:03:35;7;7;
57884;PMS5003;43703;51.060;-0.086;2023-04-01T00:06:00;5;5;
57884;PMS5003;43703;51.060;-0.086;2023-04-01T00:08:26;6;6;
57884;PMS5003;43703;51.060;-0.086;2023-04-01T00:10:51;8;6;
57884;PMS5003;43703;51.060;-0.086;2023-04-01T00:13:16;7;7;
57884;PMS5003;43703;51.060;-0.086;2023-04-01T00:15:41;10;6;
57884;PMS5003;43703;51.060;-0.086;2023-04-01T00:18:06;6;6;
57884;PMS5003;43703;51.060;-0.086;2023-04-01T00:20:31;8;8;
57884;PMS5003;43703;51.060;-0.086;2023-04-01T00:22:56;6;5;
57884;PMS5003;43703;51.060;-0.086;2023-04-01T00:25:21;8;8;
57884;PMS5003;43703;51.060;-0.086;2023-04-01T00:27:46;7;7;
57884;PMS5003;43703;51.060;-0.086;2023-04-01T00:30:11;11;11;
57884;PMS5003;43703;51.060;-0.086;2023-04-01T00:32:37;8;8;
57884;PMS5003;43703;51.060;-0.086;2023-04-01T00:35:02;9;6;
57884;PMS5003;43703;51.060;-0.086;2023-04-01T00:37:27;6;6;
57884;PMS5003;43703;51.060;-0.086;2023-04-01T00:39:52;9;7;
57884;PMS5003;43703;51.060;-0.086;2023-04-01T00:42:17;8;7;
57884;PMS5003;43703;51.060;-0.086;2023-04-01T00:44:42;9;8;
57884;PMS5003;43703;51.060;-0.086;2023-04-01T00:47:07;7;7;
57884;PMS5003;43703;51.060;-0.086;2023-04-01T00:49:33;10;9;
57884;PMS5003;43703;51.060;-0.086;2023-04-01T00:51:58;7;7;
57884;PMS5003;43703;51.060;-0.086;2023-04-01T00:54:24;8;7;
57884;PMS5003;43703;51.060;-0.086;2023-04-01T00:56:49;9;9;
57884;PMS5003;43703;51.060;-0.086;2023-04-01T00:59:14;8;7;
57884;PMS5003;43703;51.060;-0.086;2023-04-01T01:01:38;8;8;
57884;PMS5003;43703;51.060;-0.086;2023-04-01T01:04:03;5;4;
57884;PMS5003;43703;51.060;-0.086;2023-04-01T01:06:32;6;6;
57884;PMS5003;43703;51.060;-0.086;2023-04-01T01:11:19;9;8;
57884;PMS5003;43703;51.060;-0.086;2023-04-01T01:13:44;9;5;
57884;PMS5003;43703;51.060;-0.086;2023-04-01T01:16:09;6;5;
57884;PMS5003;43703;51.060;-0.086;2023-04-01T01:18:34;5;5;
57884;PMS5003;43703;51.060;-0.086;2023-04-01T01:21:06;7;6;
57884;PMS5003;43703;51.060;-0.086;2023-04-01T01:25:50;7;6;
57884;PMS5003;43703;51.060;-0.086;2023-04-01T01:28:19;6;6;
57884;PMS5003;43703;51.060;-0.086;2023-04-01T01:30:42;7;7;
57884;PMS5003;43703;51.060;-0.086;2023-04-01T01:33:07;7;7;
57884;PMS5003;43703;51.060;-0.086;2023-04-01T01:35:30;6;6;
57884;PMS5003;43703;51.060;-0.086;2023-04-01T01:37:55;3;3;
57884;PMS5003;43703;51.060;-0.086;2023-04-01T01:40:19;5;5;
57884;PMS5003;43703;51.060;-0.086;2023-04-01T01:42:45;5;5;
57884;PMS5003;43703;51.060;-0.086;2023-04-01T01:45:09;5;5;
57884;PMS5003;43703;51.060;-0.086;2023-04-01T01:47:34;9;7;
57884;PMS5003;43703;51.060;-0.086;2023-04-01T01:49:59;5;4;
57884;PMS5003;43703;51.060;-0.086;2023-04-01T01:52:26;6;6;
57884;PMS5003;43703;51.060;-0.086;2023-04-01T01:54:49;8;7;
57884;PMS5003;43703;51.060;-0.086;2023-04-01T01:57:14;8;8;
57884;PMS5003;43703;51.060;-0.086;2023-04-01T01:59:39;8;8;
57884;PMS5003;43703;51.060;-0.086;2023-04-01T02:02:04;6;6;
57884;PMS5003;43703;51.060;-0.086;2023-04-01T02:04:29;7;7;
57884;PMS5003;43703;51.060;-0.086;2023-04-01T02:06:56;7;7;
57884;PMS5003;43703;51.060;-0.086;2023-04-01T02:09:20;6;6;
57884;PMS5003;43703;51.060;-0.086;2023-04-01T02:11:46;7;7;
57884;PMS5003;43703;51.060;-0.086;2023-04-01T02:14:12;6;6;
57884;PMS5003;43703;51.060;-0.086;2023-04-01T02:16:36;9;7;
57884;PMS5003;43703;51.060;-0.086;2023-04-01T02:19:00;6;6;
57884;PMS5003;43703;51.060;-0.086;2023-04-01T02:21:26;7;7;
57884;PMS5003;43703;51.060;-0.086;2023-04-01T02:23:50;8;8;
57884;PMS5003;43703;51.060;-0.086;2023-04-01T02:26:15;7;7;
57884;PMS5003;43703;51.060;-0.086;2023-04-01T02:28:40;6;6;
57884;PMS5003;43703;51.060;-0.086;2023-04-01T02:31:05;7;7;
57884;PMS5003;43703;51.060;-0.086;2023-04-01T02:33:30;9;9;
57884;PMS5003;43703;51.060;-0.086;2023-04-01T02:35:56;10;10;
57884;PMS5003;43703;51.060;-0.086;2023-04-01T02:38:21;8;8;
57884;PMS5003;43703;51.060;-0.086;2023-04-01T02:40:46;6;6;
57884;PMS5003;43703;51.060;-0.086;2023-04-01T02:43:11;8;8;
57884;PMS5003;43703;51.060;-0.086;2023-04-01T02:45:36;6;6;
57884;PMS5003;43703;51.060;-0.086;2023-04-01T02:48:01;7;7;
57884;PMS5003;43703;51.060;-0.086;2023-04-01T02:50:26;9;9;
57884;PMS5003;43703;51.060;-0.086;2023-04-01T02:52:51;6;6;
57884;PMS5003;43703;51.060;-0.086;2023-04-01T02:55:16;8;8;
57884;PMS5003;43703;51.060;-0.086;2023-04-01T02:57:41;7;7;
57884;PMS5003;43703;51.060;-0.086;2023-04-01T03:00:06;7;7;
57884;PMS5003;43703;51.060;-0.086;2023-04-01T03:02:31;9;6;
57884;PMS5003;43703;51.060;-0.086;2023-04-01T03:04:56;5;5;
57884;PMS5003;43703;51.060;-0.086;2023-04-01T03:07:21;10;7;
57884;PMS5003;43703;51.060;-0.086;2023-04-01T03:09:46;7;7;
57884;PMS5003;43703;51.060;-0.086;2023-04-01T03:12:12;5;4;
57884;PMS5003;43703;51.060;-0.086;2023-04-01T03:14:36;5;5;
57884;PMS5003;43703;51.060;-0.086;2023-04-01T03:17:01;5;5;
57884;PMS5003;43703;51.060;-0.086;2023-04-01T03:19:26;5;5;
57884;PMS5003;43703;51.060;-0.086;2023-04-01T03:21:51;5;5;
57884;PMS5003;43703;51.060;-0.086;2023-04-01T03:24:16;3;3;
57884;PMS5003;43703;51.060;-0.086;2023-04-01T03:26:41;7;5;
57884;PMS5003;43703;51.060;-0.086;2023-04-01T03:29:06;5;5;
57884;PMS5003;43703;51.060;-0.086;2023-04-01T03:31:31;5;5;
57884;PMS5003;43703;51.060;-0.086;2023-04-01T03:33:56;3;3;
57884;PMS5003;43703;51.060;-0.086;2023-04-01T03:36:21;4;4;
57884;PMS5003;43703;51.060;-0.086;2023-04-01T03:38:46;3;3;
57884;PMS5003;43703;51.060;-0.086;2023-04-01T03:41:11;5;5;
57884;PMS5003;43703;51.060;-0.086;2023-04-01T03:43:36;4;3;
57884;PMS5003;43703;51.060;-0.086;2023-04-01T03:46:01;6;4;
57884;PMS5003;43703;51.060;-0.086;2023-04-01T03:48:26;5;4;
57884;PMS5003;43703;51.060;-0.086;2023-04-01T03:50:51;4;4;
57884;PMS5003;43703;51.060;-0.086;2023-04-01T03:53:16;2;2;
57884;PMS5003;43703;51.060;-0.086;2023-04-01T03:55:41;3;3;
57884;PMS5003;43703;51.060;-0.086;2023-04-01T03:58:07;3;3;
57884;PMS5003;43703;51.060;-0.086;2023-04-01T04:00:31;3;3;
57884;PMS5003;43703;51.060;-0.086;2023-04-01T04:02:57;3;3;
57884;PMS5003;43703;51.060;-0.086;2023-04-01T04:05:21;3;3;
57884;PMS5003;43703;51.060;-0.086;2023-04-01T04:07:46;4;4;
57884;PMS5003;43703;51.060;-0.086;2023-04-01T04:10:12;3;3;
57884;PMS5003;43703;51.060;-0.086;2023-04-01T04:12:36;4;4;
57884;PMS5003;43703;51.060;-0.086;2023-04-01T04:15:01;3;3;
57884;PMS5003;43703;51.060;-0.086;2023-04-01T04:17:26;3;3;
57884;PMS5003;43703;51.060;-0.086;2023-04-01T04:19:51;3;3;
57884;PMS5003;43703;51.060;-0.086;2023-04-01T04:22:17;5;5;
57884;PMS5003;43703;51.060;-0.086;2023-04-01T04:24:42;3;3;
57884;PMS5003;43703;51.060;-0.086;2023-04-01T04:27:07;3;3;
57884;PMS5003;43703;51.060;-0.086;2023-04-01T04:29:32;4;4;
57884;PMS5003;43703;51.060;-0.086;2023-04-01T04:31:57;4;4;
57884;PMS5003;43703;51.060;-0.086;2023-04-01T04:34:22;2;2;
57884;PMS5003;43703;51.060;-0.086;2023-04-01T04:36:48;3;3;
57884;PMS5003;43703;51.060;-0.086;2023-04-01T04:39:12;2;2;
57884;PMS5003;43703;51.060;-0.086;2023-04-01T04:41:37;2;2;
57884;PMS5003;43703;51.060;-0.086;2023-04-01T04:44:03;3;3;
57884;PMS5003;43703;51.060;-0.086;2023-04-01T04:46:28;4;4;
57884;PMS5003;43703;51.060;-0.086;2023-04-01T04:48:53;6;4;
57884;PMS5003;43703;51.060;-0.086;2023-04-01T04:51:19;3;3;
57884;PMS5003;43703;51.060;-0.086;2023-04-01T04:53:44;3;3;
57884;PMS5003;43703;51.060;-0.086;2023-04-01T04:56:08;5;5;
57884;PMS5003;43703;51.060;-0.086;2023-04-01T04:58:33;4;4;
57884;PMS5003;43703;51.060;-0.086;2023-04-01T05:00:58;4;4;
57884;PMS5003;43703;51.060;-0.086;2023-04-01T05:03:23;5;5;
57884;PMS5003;43703;51.060;-0.086;2023-04-01T05:05:49;3;3;
57884;PMS5003;43703;51.060;-0.086;2023-04-01T05:08:13;5;5;
57884;PMS5003;43703;51.060;-0.086;2023-04-01T05:10:38;4;4;
57884;PMS5003;43703;51.060;-0.086;2023-04-01T05:13:04;4;4;
57884;PMS5003;43703;51.060;-0.086;2023-04-01T05:15:28;5;5;
57884;PMS5003;43703;51.060;-0.086;2023-04-01T05:17:53;5;4;
57884;PMS5003;43703;51.060;-0.086;2023-04-01T05:20:19;5;5;
57884;PMS5003;43703;51.060;-0.086;2023-04-01T05:22:44;6;6;
57884;PMS5003;43703;51.060;-0.086;2023-04-01T05:25:09;5;5;
57884;PMS5003;43703;51.060;-0.086;2023-04-01T05:27:34;5;5;
57884;PMS5003;43703;51.060;-0.086;2023-04-01T05:29:59;6;6;
57884;PMS5003;43703;51.060;-0.086;2023-04-01T05:32:24;6;6;
57884;PMS5003;43703;51.060;-0.086;2023-04-01T05:34:50;6;6;
57884;PMS5003;43703;51.060;-0.086;2023-04-01T05:37:14;6;6;
57884;PMS5003;43703;51.060;-0.086;2023-04-01T05:39:39;9;9;
57884;PMS5003;43703;51.060;-0.086;2023-04-01T05:42:05;6;6;
57884;PMS5003;43703;51.060;-0.086;2023-04-01T05:44:29;5;5;
57884;PMS5003;43703;51.060;-0.086;2023-04-01T05:46:54;7;7;
57884;PMS5003;43703;51.060;-0.086;2023-04-01T05:49:19;8;8;
57884;PMS5003;43703;51.060;-0.086;2023-04-01T05:51:44;8;8;
57884;PMS5003;43703;51.060;-0.086;2023-04-01T05:54:09;8;8;
57884;PMS5003;43703;51.060;-0.086;2023-04-01T05:56:34;11;11;
57884;PMS5003;43703;51.060;-0.086;2023-04-01T05:58:59;8;8;
57884;PMS5003;43703;51.060;-0.086;2023-04-01T06:01:24;9;8;
57884;PMS5003;43703;51.060;-0.086;2023-04-01T06:03:49;8;7;
57884;PMS5003;43703;51.060;-0.086;2023-04-01T06:06:15;11;10;
57884;PMS5003;43703;51.060;-0.086;2023-04-01T06:08:39;12;10;
57884;PMS5003;43703;51.060;-0.086;2023-04-01T06:11:07;10;9;
57884;PMS5003;43703;51.060;-0.086;2023-04-01T06:13:32;10;10;
57884;PMS5003;43703;51.060;-0.086;2023-04-01T06:15:57;10;10;
57884;PMS5003;43703;51.060;-0.086;2023-04-01T06:18:27;9;9;
57884;PMS5003;43703;51.060;-0.086;2023-04-01T06:20:47;10;10;
57884;PMS5003;43703;51.060;-0.086;2023-04-01T06:23:15;12;10;
57884;PMS5003;43703;51.060;-0.086;2023-04-01T06:25:38;10;7;
57884;PMS5003;43703;51.060;-0.086;2023-04-01T06:28:05;7;7;
57884;PMS5003;43703;51.060;-0.086;2023-04-01T06:30:30;7;7;
57884;PMS5003;43703;51.060;-0.086;2023-04-01T06:32:56;9;9;
57884;PMS5003;43703;51.060;-0.086;2023-04-01T06:35:22;8;8;
57884;PMS5003;43703;51.060;-0.086;2023-04-01T06:37:46;10;10;
57884;PMS5003;43703;51.060;-0.086;2023-04-01T06:40:15;7;7;
57884;PMS5003;43703;51.060;-0.086;2023-04-01T06:42:35;9;9;
57884;PMS5003;43703;51.060;-0.086;2023-04-01T06:44:59;8;7;
57884;PMS5003;43703;51.060;-0.086;2023-04-01T06:47:25;11;9;
57884;PMS5003;43703;51.060;-0.086;2023-04-01T06:49:50;10;8;
57884;PMS5003;43703;51.060;-0.086;2023-04-01T06:52:13;11;11;
57884;PMS5003;43703;51.060;-0.086;2023-04-01T06:54:37;10;9;
57884;PMS5003;43703;51.060;-0.086;2023-04-01T06:57:03;7;7;
57884;PMS5003;43703;51.060;-0.086;2023-04-01T06:59:27;7;7;
57884;PMS5003;43703;51.060;-0.086;2023-04-01T07:01:52;7;7;
57884;PMS5003;43703;51.060;-0.086;2023-04-01T07:04:18;8;7;
57884;PMS5003;43703;51.060;-0.086;2023-04-01T07:06:43;6;6;
57884;PMS5003;43703;51.060;-0.086;2023-04-01T07:09:09;6;6;
57884;PMS5003;43703;51.060;-0.086;2023-04-01T07:11:33;6;6;
57884;PMS5003;43703;51.060;-0.086;2023-04-01T07:13:58;6;4;
57884;PMS5003;43703;51.060;-0.086;2023-04-01T07:16:24;5;5;
57884;PMS5003;43703;51.060;-0.086;2023-04-01T07:18:48;5;5;
57884;PMS5003;43703;51.060;-0.086;2023-04-01T07:21:22;6;6;
57884;PMS5003;43703;51.060;-0.086;2023-04-01T07:23:38;4;4;
57884;PMS5003;43703;51.060;-0.086;2023-04-01T07:26:04;5;5;
57884;PMS5003;43703;51.060;-0.086;2023-04-01T07:28:29;5;5;
57884;PMS5003;43703;51.060;-0.086;2023-04-01T07:31:00;6;6;
57884;PMS5003;43703;51.060;-0.086;2023-04-01T07:33:19;5;5;
57884;PMS5003;43703;51.060;-0.086;2023-04-01T07:35:43;6;6;
57884;PMS5003;43703;51.060;-0.086;2023-04-01T07:38:11;6;6;
57884;PMS5003;43703;51.060;-0.086;2023-04-01T07:40:34;6;6;
57884;PMS5003;43703;51.060;-0.086;2023-04-01T07:43:02;7;7;
57884;PMS5003;43703;51.060;-0.086;2023-04-01T07:45:23;11;8;
57884;PMS5003;43703;51.060;-0.086;2023-04-01T07:47:52;8;8;
57884;PMS5003;43703;51.060;-0.086;2023-04-01T07:50:15;6;6;
57884;PMS5003;43703;51.060;-0.086;2023-04-01T07:52:39;7;7;
57884;PMS5003;43703;51.060;-0.086;2023-04-01T07:55:04;6;6;
57884;PMS5003;43703;51.060;-0.086;2023-04-01T07:57:30;6;6;
57884;PMS5003;43703;51.060;-0.086;2023-04-01T07:59:56;4;4;
57884;PMS5003;43703;51.060;-0.086;2023-04-01T08:02:22;5;5;
57884;PMS5003;43703;51.060;-0.086;2023-04-01T08:04:47;7;7;
57884;PMS5003;43703;51.060;-0.086;2023-04-01T08:07:09;7;7;
57884;PMS5003;43703;51.060;-0.086;2023-04-01T08:09:36;10;10;
57884;PMS5003;43703;51.060;-0.086;2023-04-01T08:12:03;10;9;
57884;PMS5003;43703;51.060;-0.086;2023-04-01T08:14:26;11;11;
57884;PMS5003;43703;51.060;-0.086;2023-04-01T08:16:51;10;10;
57884;PMS5003;43703;51.060;-0.086;2023-04-01T08:19:17;9;9;
57884;PMS5003;43703;51.060;-0.086;2023-04-01T08:21:41;10;9;
57884;PMS5003;43703;51.060;-0.086;2023-04-01T08:24:06;7;7;
57884;PMS5003;43703;51.060;-0.086;2023-04-01T08:26:30;10;10;
57884;PMS5003;43703;51.060;-0.086;2023-04-01T08:28:55;10;10;
57884;PMS5003;43703;51.060;-0.086;2023-04-01T08:31:21;7;6;
57884;PMS5003;43703;51.060;-0.086;2023-04-01T08:33:46;9;9;
57884;PMS5003;43703;51.060;-0.086;2023-04-01T08:36:11;15;14;
57884;PMS5003;43703;51.060;-0.086;2023-04-01T08:38:38;11;8;
57884;PMS5003;43703;51.060;-0.086;2023-04-01T08:41:01;7;7;
57884;PMS5003;43703;51.060;-0.086;2023-04-01T08:45:56;8;8;
57884;PMS5003;43703;51.060;-0.086;2023-04-01T08:48:19;7;7;
57884;PMS5003;43703;51.060;-0.086;2023-04-01T08:50:47;7;7;
57884;PMS5003;43703;51.060;-0.086;2023-04-01T08:53:09;7;7;
57884;PMS5003;43703;51.060;-0.086;2023-04-01T08:55:36;8;8;
57884;PMS5003;43703;51.060;-0.086;2023-04-01T09:00:25;7;7;
57884;PMS5003;43703;51.060;-0.086;2023-04-01T09:02:56;7;6;
57884;PMS5003;43703;51.060;-0.086;2023-04-01T09:07:40;4;4;
57884;PMS5003;43703;51.060;-0.086;2023-04-01T09:10:13;8;7;
57884;PMS5003;43703;51.060;-0.086;2023-04-01T09:12:34;3;3;
57884;PMS5003;43703;51.060;-0.086;2023-04-01T09:14:59;5;5;
57884;PMS5003;43703;51.060;-0.086;2023-04-01T09:19:51;5;5;
57884;PMS5003;43703;51.060;-0.086;2023-04-01T09:22:19;5;5;
57884;PMS5003;43703;51.060;-0.086;2023-04-01T09:24:40;6;4;
57884;PMS5003;43703;51.060;-0.086;2023-04-01T09:27:05;5;5;
57884;PMS5003;43703;51.060;-0.086;2023-04-01T09:29:34;6;6;
57884;PMS5003;43703;51.060;-0.086;2023-04-01T09:32:03;5;5;
57884;PMS5003;43703;51.060;-0.086;2023-04-01T09:36:48;7;6;
57884;PMS5003;43703;51.060;-0.086;2023-04-01T09:39:18;5;5;
57884;PMS5003;43703;51.060;-0.086;2023-04-01T09:41:39;5;5;
57884;PMS5003;43703;51.060;-0.086;2023-04-01T09:44:03;6;6;
57884;PMS5003;43703;51.060;-0.086;2023-04-01T09:46:31;5;5;
57884;PMS5003;43703;51.060;-0.086;2023-04-01T09:49:00;5;5;
57884;PMS5003;43703;51.060;-0.086;2023-04-01T09:51:22;4;4;
57884;PMS5003;43703;51.060;-0.086;2023-04-01T09:53:48;6;6;
57884;PMS5003;43703;51.060;-0.086;2023-04-01T10:01:06;5;5;
57884;PMS5003;43703;51.060;-0.086;2023-04-01T10:05:59;11;11;
57884;PMS5003;43703;51.060;-0.086;2023-04-01T10:20:30;14;14;
57884;PMS5003;43703;51.060;-0.086;2023-04-01T10:22:58;13;11;
57884;PMS5003;43703;51.060;-0.086;2023-04-01T10:39:55;9;9;
57884;PMS5003;43703;51.060;-0.086;2023-04-01T10:44:45;5;5;
57884;PMS5003;43703;51.060;-0.086;2023-04-01T10:49:36;9;8;
57884;PMS5003;43703;51.060;-0.086;2023-04-01T10:56:51;6;6;
57884;PMS5003;43703;51.060;-0.086;2023-04-01T10:59:20;8;8;
57884;PMS5003;43703;51.060;-0.086;2023-04-01T11:23:36;6;6;
57884;PMS5003;43703;51.060;-0.086;2023-04-01T11:28:27;10;10;
57884;PMS5003;43703;51.060;-0.086;2023-04-01T11:30:55;10;9;
57884;PMS5003;43703;51.060;-0.086;2023-04-01T11:33:16;10;8;
57884;PMS5003;43703;51.060;-0.086;2023-04-01T11:38:11;11;10;
57884;PMS5003;43703;51.060;-0.086;2023-04-01T11:40:34;12;10;
57884;PMS5003;43703;51.060;-0.086;2023-04-01T11:43:00;15;13;
57884;PMS5003;43703;51.060;-0.086;2023-04-01T11:45:28;9;7;
57884;PMS5003;43703;51.060;-0.086;2023-04-01T11:50:20;10;9;
57884;PMS5003;43703;51.060;-0.086;2023-04-01T11:55:15;10;8;
57884;PMS5003;43703;51.060;-0.086;2023-04-01T11:57:37;9;8;
57884;PMS5003;43703;51.060;-0.086;2023-04-01T12:00:02;9;9;
57884;PMS5003;43703;51.060;-0.086;2023-04-01T12:02:26;9;9;
57884;PMS5003;43703;51.060;-0.086;2023-04-01T12:04:53;8;8;
57884;PMS5003;43703;51.060;-0.086;2023-04-01T12:07:19;8;8;
57884;PMS5003;43703;51.060;-0.086;2023-04-01T12:09:45;8;7;
57884;PMS5003;43703;51.060;-0.086;2023-04-01T12:12:12;11;9;
57884;PMS5003;43703;51.060;-0.086;2023-04-01T12:14:35;9;9;
57884;PMS5003;43703;51.060;-0.086;2023-04-01T12:17:02;9;9;
57884;PMS5003;43703;51.060;-0.086;2023-04-01T12:19:27;13;11;
57884;PMS5003;43703;51.060;-0.086;2023-04-01T12:21:53;10;10;
57884;PMS5003;43703;51.060;-0.086;2023-04-01T12:29:07;11;10;
57884;PMS5003;43703;51.060;-0.086;2023-04-01T12:31:35;8;8;
57884;PMS5003;43703;51.060;-0.086;2023-04-01T12:34:02;9;9;
57884;PMS5003;43703;51.060;-0.086;2023-04-01T12:36:31;10;10;
57884;PMS5003;43703;51.060;-0.086;2023-04-01T12:38:54;9;9;
57884;PMS5003;43703;51.060;-0.086;2023-04-01T12:41:18;7;7;
57884;PMS5003;43703;51.060;-0.086;2023-04-01T12:43:47;9;9;
57884;PMS5003;43703;51.060;-0.086;2023-04-01T12:46:06;7;7;
57884;PMS5003;43703;51.060;-0.086;2023-04-01T12:48:33;10;10;
57884;PMS5003;43703;51.060;-0.086;2023-04-01T12:53:25;6;6;
57884;PMS5003;43703;51.060;-0.086;2023-04-01T12:55:47;8;6;
57884;PMS5003;43703;51.060;-0.086;2023-04-01T12:58:20;8;8;
57884;PMS5003;43703;51.060;-0.086;2023-04-01T13:00:41;7;7;
57884;PMS5003;43703;51.060;-0.086;2023-04-01T13:03:10;11;8;
57884;PMS5003;43703;51.060;-0.086;2023-04-01T13:07:57;6;6;
57884;PMS5003;43703;51.060;-0.086;2023-04-01T13:10:27;5;5;
57884;PMS5003;43703;51.060;-0.086;2023-04-01T13:12:52;5;5;
57884;PMS5003;43703;51.060;-0.086;2023-04-01T13:15:16;5;5;
57884;PMS5003;43703;51.060;-0.086;2023-04-01T13:17:40;6;6;
57884;PMS5003;43703;51.060;-0.086;2023-04-01T13:20:06;7;6;
57884;PMS5003;43703;51.060;-0.086;2023-04-01T13:22:41;5;5;
57884;PMS5003;43703;51.060;-0.086;2023-04-01T13:24:58;7;6;
57884;PMS5003;43703;51.060;-0.086;2023-04-01T13:27:24;8;8;
57884;PMS5003;43703;51.060;-0.086;2023-04-01T13:29:55;6;6;
57884;PMS5003;43703;51.060;-0.086;2023-04-01T13:32:18;5;5;
57884;PMS5003;43703;51.060;-0.086;2023-04-01T13:34:45;7;7;
57884;PMS5003;43703;51.060;-0.086;2023-04-01T13:37:13;8;6;
57884;PMS5003;43703;51.060;-0.086;2023-04-01T13:39:35;6;6;
57884;PMS5003;43703;51.060;-0.086;2023-04-01T13:42:01;9;7;
57884;PMS5003;43703;51.060;-0.086;2023-04-01T13:44:26;6;6;
57884;PMS5003;43703;51.060;-0.086;2023-04-01T13:46:55;7;7;
57884;PMS5003;43703;51.060;-0.086;2023-04-01T13:49:20;7;5;
57884;PMS5003;43703;51.060;-0.086;2023-04-01T13:51:46;9;7;
57884;PMS5003;43703;51.060;-0.086;2023-04-01T13:56:34;5;5;
57884;PMS5003;43703;51.060;-0.086;2023-04-01T13:59:03;8;6;
57884;PMS5003;43703;51.060;-0.086;2023-04-01T14:01:26;5;5;
57884;PMS5003;43703;51.060;-0.086;2023-04-01T14:03:56;6;6;
57884;PMS5003;43703;51.060;-0.086;2023-04-01T14:06:19;6;6;
57884;PMS5003;43703;51.060;-0.086;2023-04-01T14:08:48;4;4;
57884;PMS5003;43703;51.060;-0.086;2023-04-01T14:11:11;5;5;
57884;PMS5003;43703;51.060;-0.086;2023-04-01T14:13:34;4;4;
57884;PMS5003;43703;51.060;-0.086;2023-04-01T14:16:02;5;5;
57884;PMS5003;43703;51.060;-0.086;2023-04-01T14:20:51;4;4;
57884;PMS5003;43703;51.060;-0.086;2023-04-01T14:23:23;4;4;
57884;PMS5003;43703;51.060;-0.086;2023-04-01T14:25:48;6;6;
57884;PMS5003;43703;51.060;-0.086;2023-04-01T14:28:11;6;6;
57884;PMS5003;43703;51.060;-0.086;2023-04-01T14:30:38;6;5;
57884;PMS5003;43703;51.060;-0.086;2023-04-01T14:33:02;5;5;
57884;PMS5003;43703;51.060;-0.086;2023-04-01T14:35:29;6;6;
57884;PMS5003;43703;51.060;-0.086;2023-04-01T14:47:39;3;3;
57884;PMS5003;43703;51.060;-0.086;2023-04-01T14:50:05;6;4;
57884;PMS5003;43703;51.060;-0.086;2023-04-01T14:52:27;6;6;
57884;PMS5003;43703;51.060;-0.086;2023-04-01T14:54:52;7;7;
57884;PMS5003;43703;51.060;-0.086;2023-04-01T14:57:22;7;7;
57884;PMS5003;43703;51.060;-0.086;2023-04-01T14:59:46;10;9;
57884;PMS5003;43703;51.060;-0.086;2023-04-01T15:02:16;8;7;
57884;PMS5003;43703;51.060;-0.086;2023-04-01T15:04:43;6;6;
57884;PMS5003;43703;51.060;-0.086;2023-04-01T15:07:06;6;6;
57884;PMS5003;43703;51.060;-0.086;2023-04-01T15:09:28;7;7;
57884;PMS5003;43703;51.060;-0.086;2023-04-01T15:11:56;6;6;
57884;PMS5003;43703;51.060;-0.086;2023-04-01T15:14:25;4;4;
57884;PMS5003;43703;51.060;-0.086;2023-04-01T15:16:47;9;7;
57884;PMS5003;43703;51.060;-0.086;2023-04-01T15:19:14;11;7;
57884;PMS5003;43703;51.060;-0.086;2023-04-01T15:21:41;7;5;
57884;PMS5003;43703;51.060;-0.086;2023-04-01T15:24:05;9;7;
57884;PMS5003;43703;51.060;-0.086;2023-04-01T15:26:32;5;5;
57884;PMS5003;43703;51.060;-0.086;2023-04-01T15:28:58;6;6;
57884;PMS5003;43703;51.060;-0.086;2023-04-01T15:31:21;6;4;
57884;PMS5003;43703;51.060;-0.086;2023-04-01T15:33:48;5;5;
57884;PMS5003;43703;51.060;-0.086;2023-04-01T15:36:15;6;5;
57884;PMS5003;43703;51.060;-0.086;2023-04-01T15:38:39;6;6;
57884;PMS5003;43703;51.060;-0.086;2023-04-01T15:41:06;5;5;
57884;PMS5003;43703;51.060;-0.086;2023-04-01T15:43:31;9;7;
57884;PMS5003;43703;51.060;-0.086;2023-04-01T15:45:57;4;4;
57884;PMS5003;43703;51.060;-0.086;2023-04-01T15:48:23;6;5;
57884;PMS5003;43703;51.060;-0.086;2023-04-01T15:50:51;6;6;
57884;PMS5003;43703;51.060;-0.086;2023-04-01T15:53:16;8;8;
57884;PMS5003;43703;51.060;-0.086;2023-04-01T15:55:37;7;7;
57884;PMS5003;43703;51.060;-0.086;2023-04-01T15:58:06;10;8;
57884;PMS5003;43703;51.060;-0.086;2023-04-01T16:00:27;8;7;
57884;PMS5003;43703;51.060;-0.086;2023-04-01T16:02:58;8;7;
57884;PMS5003;43703;51.060;-0.086;2023-04-01T16:07:48;9;9;
57884;PMS5003;43703;51.060;-0.086;2023-04-01T16:12:38;10;10;
57884;PMS5003;43703;51.060;-0.086;2023-04-01T16:15:03;8;8;
57884;PMS5003;43703;51.060;-0.086;2023-04-01T16:17:28;10;10;
57884;PMS5003;43703;51.060;-0.086;2023-04-01T16:19:51;9;8;
57884;PMS5003;43703;51.060;-0.086;2023-04-01T16:22:21;13;9;
57884;PMS5003;43703;51.060;-0.086;2023-04-01T16:24:41;9;8;
57884;PMS5003;43703;51.060;-0.086;2023-04-01T16:27:09;8;8;
57884;PMS5003;43703;51.060;-0.086;2023-04-01T16:29:32;10;10;
57884;PMS5003;43703;51.060;-0.086;2023-04-01T16:31:57;8;8;
57884;PMS5003;43703;51.060;-0.086;2023-04-01T16:34:22;9;8;
57884;PMS5003;43703;51.060;-0.086;2023-04-01T16:36:47;6;6;
57884;PMS5003;43703;51.060;-0.086;2023-04-01T16:39:18;7;7;
57884;PMS5003;43703;51.060;-0.086;2023-04-01T16:41:38;8;8;
57884;PMS5003;43703;51.060;-0.086;2023-04-01T16:44:09;8;8;
57884;PMS5003;43703;51.060;-0.086;2023-04-01T16:46:28;8;8;
57884;PMS5003;43703;51.060;-0.086;2023-04-01T16:48:58;12;8;
57884;PMS5003;43703;51.060;-0.086;2023-04-01T16:51:17;11;8;
57884;PMS5003;43703;51.060;-0.086;2023-04-01T16:53:42;7;7;
57884;PMS5003;43703;51.060;-0.086;2023-04-01T16:56:08;7;7;
57884;PMS5003;43703;51.060;-0.086;2023-04-01T16:58:34;11;8;
57884;PMS5003;43703;51.060;-0.086;2023-04-01T17:00:59;5;5;
57884;PMS5003;43703;51.060;-0.086;2023-04-01T17:03:23;9;7;
57884;PMS5003;43703;51.060;-0.086;2023-04-01T17:05:50;6;6;
57884;PMS5003;43703;51.060;-0.086;2023-04-01T17:08:16;7;7;
57884;PMS5003;43703;51.060;-0.086;2023-04-01T17:10:40;6;6;
57884;PMS5003;43703;51.060;-0.086;2023-04-01T17:13:10;7;7;
57884;PMS5003;43703;51.060;-0.086;2023-04-01T17:15:29;7;7;
57884;PMS5003;43703;51.060;-0.086;2023-04-01T17:17:54;8;8;
57884;PMS5003;43703;51.060;-0.086;2023-04-01T17:20:20;9;9;
57884;PMS5003;43703;51.060;-0.086;2023-04-01T17:22:44;10;9;
57884;PMS5003;43703;51.060;-0.086;2023-04-01T17:25:13;7;7;
57884;PMS5003;43703;51.060;-0.086;2023-04-01T17:27:35;8;8;
57884;PMS5003;43703;51.060;-0.086;2023-04-01T17:30:03;10;9;
57884;PMS5003;43703;51.060;-0.086;2023-04-01T17:32:25;8;7;
57884;PMS5003;43703;51.060;-0.086;2023-04-01T17:34:53;11;9;
57884;PMS5003;43703;51.060;-0.086;2023-04-01T17:37:18;7;7;
57884;PMS5003;43703;51.060;-0.086;2023-04-01T17:39:40;10;10;
57884;PMS5003;43703;51.060;-0.086;2023-04-01T17:42:05;9;9;
57884;PMS5003;43703;51.060;-0.086;2023-04-01T17:44:31;7;7;
57884;PMS5003;43703;51.060;-0.086;2023-04-01T17:49:22;7;6;
57884;PMS5003;43703;51.060;-0.086;2023-04-01T17:51:46;7;7;
57884;PMS5003;43703;51.060;-0.086;2023-04-01T17:54:12;7;7;
57884;PMS5003;43703;51.060;-0.086;2023-04-01T17:56:36;5;5;
57884;PMS5003;43703;51.060;-0.086;2023-04-01T17:59:02;8;7;
57884;PMS5003;43703;51.060;-0.086;2023-04-01T18:01:26;8;8;
57884;PMS5003;43703;51.060;-0.086;2023-04-01T18:03:55;8;7;
57884;PMS5003;43703;51.060;-0.086;2023-04-01T18:06:15;7;6;
57884;PMS5003;43703;51.060;-0.086;2023-04-01T18:08:44;8;7;
57884;PMS5003;43703;51.060;-0.086;2023-04-01T18:11:08;10;8;
57884;PMS5003;43703;51.060;-0.086;2023-04-01T18:13:40;5;5;
57884;PMS5003;43703;51.060;-0.086;2023-04-01T18:15:58;6;6;
57884;PMS5003;43703;51.060;-0.086;2023-04-01T18:20:48;8;6;
57884;PMS5003;43703;51.060;-0.086;2023-04-01T18:23:13;8;8;